Time;durP1;ratioP1;P1;durP2;ratioP2;P2;SDS_P1;SDS_P2;PMS_P1;PMS_P2;Temp;Humidity;BMP_temperature;BMP_pressure;BME280_temperature;BME280_humidity;BME280_pressure;Samples;Min_cycle;Max_cycle;Signal;HPM_P1;HPM_P2
2022/11/06 00:01:42;;;;;;;20.63;14.03;;;;;;;9.92;59.62;99199.34;6985704;28;20230;-83
2022/11/06 00:08:40;;;;;;;19.73;14.87;;;;;;;9.58;59.54;99193.75;6984494;28;20268;-83
2022/11/06 00:12:04;;;;;;;18.33;15.03;;;;;;;8.96;60.89;99197.09;6985697;28;20229;-83
2022/11/06 00:15:25;;;;;;;19.40;14.17;;;;;;;8.93;61.28;99203.66;6984367;28;20240;-82
2022/11/06 00:18:47;;;;;;;21.63;15.13;;;;;;;9.43;60.98;99201.03;6983163;28;20228;-85
2022/11/06 00:22:09;;;;;;;20.40;14.87;;;;;;;9.16;60.65;99137.97;6983950;28;20226;-83
2022/11/06 00:25:31;;;;;;;21.97;15.20;;;;;;;9.50;60.48;99172.34;6985761;28;20226;-83
2022/11/06 00:28:54;;;;;;;19.10;13.83;;;;;;;9.45;61.01;99158.63;6985073;28;20595;-83
2022/11/06 00:32:16;;;;;;;19.03;14.47;;;;;;;9.35;61.49;99187.69;6985380;28;20258;-83
2022/11/06 00:35:38;;;;;;;19.47;13.90;;;;;;;9.38;61.78;99177.38;6984740;28;20198;-83
2022/11/06 00:39:00;;;;;;;20.27;14.63;;;;;;;9.44;61.88;99168.53;6983220;28;20207;-83
2022/11/06 00:42:21;;;;;;;19.83;13.40;;;;;;;9.46;62.21;99176.44;6982923;28;20592;-82
2022/11/06 00:45:44;;;;;;;16.80;13.17;;;;;;;9.70;61.44;99186.88;6981891;28;20233;-82
2022/11/06 00:49:06;;;;;;;19.90;13.83;;;;;;;9.02;61.65;99095.81;6980132;28;20575;-82
2022/11/06 00:52:29;;;;;;;16.00;12.93;;;;;;;9.87;60.77;99178.34;6978878;28;20254;-83
2022/11/06 00:55:50;;;;;;;18.27;12.27;;;;;;;10.01;60.45;99198.16;6979140;28;20298;-83
2022/11/06 00:59:13;;;;;;;14.70;12.57;;;;;;;9.69;60.16;99172.56;6977767;28;20306;-83
2022/11/06 01:02:36;;;;;;;17.87;12.90;;;;;;;9.38;60.55;99176.53;6979985;28;20234;-82
2022/11/06 01:06:04;;;;;;;16.97;13.13;;;;;;;9.26;61.39;99202.25;6977497;28;20258;-82
2022/11/06 01:09:27;;;;;;;19.73;14.10;;;;;;;9.18;62.12;99205.91;6978926;28;20273;-83
2022/11/06 01:12:48;;;;;;;16.77;13.30;;;;;;;8.87;62.62;99188.28;6979920;28;20226;-83
2022/11/06 01:16:12;;;;;;;19.33;12.93;;;;;;;9.01;62.29;99192.00;6979374;28;20222;-83
2022/11/06 01:19:35;;;;;;;17.03;12.83;;;;;;;9.44;61.01;99195.47;6979525;28;20219;-83
2022/11/06 01:22:56;;;;;;;22.37;14.70;;;;;;;9.34;61.40;99188.72;6982464;28;20225;-83
2022/11/06 01:26:22;;;;;;;16.93;12.93;;;;;;;8.87;61.44;99136.34;6984179;28;20757;-83
2022/11/06 01:29:43;;;;;;;19.43;13.93;;;;;;;9.07;62.05;99197.44;6984641;28;20201;-83
2022/11/06 01:33:05;;;;;;;16.13;12.63;;;;;;;8.64;62.65;99189.34;6985542;28;20638;-84
2022/11/06 01:36:32;;;;;;;17.30;13.00;;;;;;;8.93;62.60;99191.03;6984833;28;20333;-84
2022/11/06 01:39:53;;;;;;;20.13;13.83;;;;;;;9.47;60.68;99192.41;6984124;28;20214;-84
2022/11/06 01:43:21;;;;;;;17.07;13.07;;;;;;;9.08;60.41;99193.72;6984985;28;20234;-83
2022/11/06 01:46:46;;;;;;;18.37;13.33;;;;;;;8.72;61.67;99168.59;6967407;28;20315;-83
2022/11/06 01:50:09;;;;;;;19.00;13.03;;;;;;;8.78;61.55;99172.41;6954876;28;20225;-83
2022/11/06 01:53:32;;;;;;;16.27;12.37;;;;;;;9.28;60.10;99211.81;6956859;28;20234;-82
2022/11/06 01:56:56;;;;;;;16.10;12.60;;;;;;;9.10;59.86;99194.41;6957549;28;20284;-82
2022/11/06 02:00:21;;;;;;;18.57;12.67;;;;;;;9.26;59.36;99203.09;6956564;28;20211;-84
2022/11/06 02:04:01;;;;;;;14.97;11.80;;;;;;;9.12;60.10;99208.47;6951034;28;20700;-85
2022/11/06 02:07:23;;;;;;;15.60;11.77;;;;;;;8.80;60.60;99192.72;6950330;28;20231;-85
2022/11/06 02:10:46;;;;;;;17.70;11.57;;;;;;;9.08;59.73;99191.03;6953011;28;20844;-85
2022/11/06 02:14:13;;;;;;;12.57;10.93;;;;;;;8.56;59.14;99098.91;6955089;28;20230;-85
2022/11/06 02:17:47;;;;;;;16.03;11.77;;;;;;;8.63;59.82;99185.84;6962089;28;20199;-88
2022/11/06 02:21:29;;;;;;;20.13;12.20;;;;;;;7.65;63.15;99169.84;6964766;28;20200;-85
2022/11/06 02:25:03;;;;;;;18.30;12.33;;;;;;;8.09;62.59;99180.78;6963882;28;20216;-85
2022/11/06 02:28:29;;;;;;;15.33;11.97;;;;;;;8.69;61.78;99174.34;6962070;28;20267;-85
2022/11/06 02:31:53;;;;;;;16.67;11.50;;;;;;;8.93;61.02;99172.22;6962796;28;20230;-86
2022/11/06 02:35:22;;;;;;;14.17;11.40;;;;;;;8.76;60.84;99144.88;6959815;28;20233;-85
2022/11/06 02:38:50;;;;;;;15.33;11.07;;;;;;;8.78;60.18;99161.66;6960213;28;20583;-85
2022/11/06 02:42:13;;;;;;;15.23;11.23;;;;;;;8.41;61.09;99167.91;6963217;28;20237;-88
2022/11/06 02:45:48;;;;;;;15.20;12.10;;;;;;;8.28;61.42;99158.81;6962994;28;20204;-85
2022/11/06 02:49:14;;;;;;;15.00;11.13;;;;;;;8.01;61.76;99119.09;6962459;28;20258;-85
2022/11/06 02:52:38;;;;;;;13.30;10.87;;;;;;;8.20;61.84;99123.97;6962587;28;20232;-85
2022/11/06 02:56:04;;;;;;;17.40;11.73;;;;;;;8.41;61.29;99134.84;6962799;28;20222;-85
2022/11/06 02:59:46;;;;;;;15.20;10.57;;;;;;;8.45;60.85;99109.28;6961913;28;20213;-85
2022/11/06 03:03:17;;;;;;;14.23;10.73;;;;;;;8.53;60.64;99114.56;6962872;28;20232;-85
2022/11/06 03:06:43;;;;;;;13.33;10.30;;;;;;;8.66;60.13;99104.84;6962113;28;20235;-85
2022/11/06 03:10:15;;;;;;;14.30;10.93;;;;;;;8.73;60.00;99116.50;6963430;28;20213;-87
2022/11/06 03:13:49;;;;;;;18.87;10.30;;;;;;;8.54;60.11;99113.56;6963111;28;20258;-85
2022/11/06 03:17:36;;;;;;;16.13;11.07;;;;;;;8.02;61.54;99110.03;6963858;28;20207;-86
2022/11/06 03:21:03;;;;;;;17.93;11.73;;;;;;;8.02;61.85;99108.16;6963218;28;20689;-84
2022/11/06 03:24:33;;;;;;;18.13;13.70;;;;;;;7.68;61.65;99050.59;6962277;28;20260;-84
2022/11/06 03:28:10;;;;;;;20.00;13.30;;;;;;;7.98;61.89;99042.44;6960912;28;20249;-85
2022/11/06 03:31:35;;;;;;;16.20;12.30;;;;;;;8.77;60.30;99085.53;6962464;28;20227;-85
2022/11/06 03:35:00;;;;;;;13.57;11.43;;;;;;;8.75;60.31;99063.41;6962312;28;20214;-85
2022/11/06 03:38:27;;;;;;;15.57;11.33;;;;;;;8.53;59.81;99004.38;6961768;28;20214;-84
2022/11/06 03:41:53;;;;;;;16.87;10.97;;;;;;;8.95;59.74;99102.13;6962565;28;20238;-84
2022/11/06 03:45:18;;;;;;;13.70;10.53;;;;;;;8.92;59.30;99107.03;6960382;28;20219;-85
2022/11/06 03:48:42;;;;;;;13.80;10.70;;;;;;;8.63;59.34;99096.31;6958848;28;20231;-84
2022/11/06 03:52:07;;;;;;;15.37;11.77;;;;;;;7.66;60.87;99072.22;6960583;28;20354;-84
2022/11/06 03:55:35;;;;;;;18.23;12.83;;;;;;;7.56;61.73;99038.63;6960155;28;20218;-83
2022/11/06 03:59:00;;;;;;;20.67;12.87;;;;;;;7.53;62.25;99004.94;6959226;28;20327;-83
2022/11/06 04:02:23;;;;;;;21.30;12.43;;;;;;;8.32;62.50;99080.34;6959733;28;20229;-84
2022/11/06 04:05:49;;;;;;;16.00;11.87;;;;;;;8.77;61.21;99072.09;6959561;28;20211;-83
2022/11/06 04:21:26;;;;;;;15.47;10.80;;;;;;;8.49;60.21;99054.97;6945671;28;20206;-84
2022/11/06 04:29:03;;;;;;;14.50;9.90;;;;;;;8.14;61.40;99052.97;6934405;28;20241;-83
2022/11/06 04:32:29;;;;;;;13.10;9.60;;;;;;;8.27;61.25;99012.09;6958711;28;20230;-83
2022/11/06 04:35:59;;;;;;;11.20;9.37;;;;;;;8.05;61.72;98992.34;6958202;28;20203;-84
2022/11/06 04:39:36;;;;;;;17.23;10.30;;;;;;;8.52;61.63;99043.88;6959045;28;20195;-84
2022/11/06 04:43:38;;;;;;;13.73;10.00;;;;;;;8.23;60.58;98925.69;6958569;28;20229;-83
2022/11/06 05:03:00;;;;;;;13.63;11.07;;;;;;;8.19;60.54;99006.78;6938058;28;20224;-87
2022/11/06 05:06:22;;;;;;;14.93;10.90;;;;;;;7.92;60.58;99010.94;6984587;28;20202;-86
2022/11/06 05:09:44;;;;;;;14.47;10.43;;;;;;;8.06;60.56;98985.94;6983687;28;20194;-84
2022/11/06 05:13:06;;;;;;;14.90;10.30;;;;;;;8.06;60.39;98994.00;6983225;28;20250;-84
2022/11/06 05:16:28;;;;;;;13.40;11.03;;;;;;;8.13;59.84;98991.44;6982873;28;20232;-83
2022/11/06 05:19:51;;;;;;;11.53;9.40;;;;;;;7.97;58.81;99013.91;6980954;28;20303;-84
2022/11/06 05:23:12;;;;;;;14.27;9.93;;;;;;;7.84;59.08;99032.47;6983442;28;20257;-84
2022/11/06 05:26:34;;;;;;;14.80;10.67;;;;;;;7.30;60.96;99027.44;6984296;28;20225;-84
2022/11/06 05:29:55;;;;;;;13.90;10.07;;;;;;;7.12;61.69;99037.59;6982844;28;20222;-85
2022/11/06 05:33:20;;;;;;;14.17;10.67;;;;;;;7.43;61.42;99015.06;6983334;28;20225;-84
2022/11/06 05:36:43;;;;;;;13.23;10.57;;;;;;;7.77;60.53;99044.97;6983213;28;20663;-83
2022/11/06 05:40:07;;;;;;;12.60;9.53;;;;;;;7.72;60.78;99043.84;6983506;28;20209;-85
2022/11/06 05:43:29;;;;;;;18.27;10.87;;;;;;;7.41;60.95;99062.72;6983454;28;20237;-85
2022/11/06 05:46:52;;;;;;;16.90;10.73;;;;;;;6.84;61.16;99005.09;6981563;28;20240;-84
2022/11/06 05:50:13;;;;;;;15.03;10.43;;;;;;;6.78;60.50;99005.00;6983915;28;20216;-86
2022/11/06 05:53:37;;;;;;;15.40;10.20;;;;;;;7.41;59.88;99037.72;6988531;28;20231;-86
2022/11/06 05:56:59;;;;;;;12.33;10.07;;;;;;;7.10;60.51;99026.22;6989594;28;20204;-85
2022/11/06 06:00:21;;;;;;;15.00;10.17;;;;;;;7.42;60.80;99034.88;6994839;28;20198;-85
2022/11/06 06:03:43;;;;;;;16.77;11.03;;;;;;;6.77;61.32;98963.97;6994430;28;20231;-84
2022/11/06 06:07:05;;;;;;;16.33;11.73;;;;;;;6.55;62.17;98991.53;6990909;28;20225;-84
2022/11/06 06:10:28;;;;;;;16.93;11.47;;;;;;;6.93;61.70;98955.81;6992522;28;20207;-84
2022/11/06 06:13:49;;;;;;;15.97;10.27;;;;;;;7.20;60.77;99038.38;6989865;28;20237;-84
2022/11/06 06:17:11;;;;;;;18.37;13.83;;;;;;;6.57;60.55;98984.19;6989305;28;20205;-84
2022/11/06 06:20:34;;;;;;;23.97;16.97;;;;;;;6.66;61.92;99019.81;6989546;28;20204;-84
2022/11/06 06:24:03;;;;;;;21.67;15.63;;;;;;;7.16;61.34;99047.81;6988267;28;20223;-83
2022/11/06 06:31:16;;;;;;;14.00;9.67;;;;;;;7.45;59.63;99055.13;6979862;28;20223;-85
2022/11/06 06:34:38;;;;;;;14.37;9.57;;;;;;;6.10;60.76;98943.22;6994042;28;20205;-84
2022/11/06 06:37:59;;;;;;;12.20;10.23;;;;;;;6.46;61.54;98943.56;6978638;28;20270;-84
2022/11/06 06:41:21;;;;;;;15.50;11.97;;;;;;;7.11;62.34;98958.19;6980720;28;20700;-81
2022/11/06 07:06:29;;;;;;;17.33;11.67;;;;;;;7.24;62.05;99023.59;6720502;29;20248;-84
2022/11/06 07:09:51;;;;;;;17.10;11.47;;;;;;;7.74;61.29;99006.94;6717021;29;20334;-81
2022/11/06 07:13:12;;;;;;;13.57;10.87;;;;;;;7.78;60.53;99002.88;6810956;28;20262;-83
2022/11/06 07:16:34;;;;;;;16.97;11.93;;;;;;;7.80;60.62;98992.78;6886434;28;20765;-83
2022/11/06 07:19:55;;;;;;;13.73;11.03;;;;;;;7.80;60.30;98988.25;6889504;28;20268;-83
2022/11/06 07:23:18;;;;;;;13.07;9.90;;;;;;;8.02;60.26;98971.22;6875244;28;20320;-80
2022/11/06 07:26:40;;;;;;;13.30;9.80;;;;;;;8.50;60.20;98962.63;6867831;28;20712;-81
2022/11/06 07:30:01;;;;;;;14.57;10.30;;;;;;;8.00;60.65;98937.50;6874889;28;20303;-78
2022/11/06 07:33:23;;;;;;;13.57;10.53;;;;;;;8.51;60.73;98937.41;6890719;28;20250;-80
2022/11/06 07:36:44;;;;;;;14.73;10.90;;;;;;;8.85;60.21;98947.50;6907855;28;20236;-81
2022/11/06 07:40:09;;;;;;;13.83;10.93;;;;;;;9.09;60.61;98931.84;6962356;28;20290;-80
2022/11/06 07:43:31;;;;;;;13.50;9.23;;;;;;;9.11;61.27;98935.16;6963101;28;20317;-79
2022/11/06 07:46:52;;;;;;;13.00;8.40;;;;;;;9.36;60.05;98912.19;6974530;28;20245;-79
2022/11/06 07:50:14;;;;;;;12.10;8.70;;;;;;;9.60;59.67;98874.91;6975391;28;20317;-79
2022/11/06 07:53:36;;;;;;;13.13;9.33;;;;;;;10.15;58.45;98906.34;6976385;28;20700;-79
2022/11/06 07:56:59;;;;;;;11.77;9.40;;;;;;;10.04;58.91;98891.56;6975607;28;20320;-79
2022/11/06 08:00:21;;;;;;;10.80;8.43;;;;;;;10.07;59.06;98884.94;6975622;28;20671;-79
2022/11/06 08:03:42;;;;;;;11.63;9.17;;;;;;;10.23;59.20;98871.13;6976230;28;20250;-79
2022/11/06 08:07:04;;;;;;;11.90;8.63;;;;;;;10.03;59.25;98867.50;6969948;28;20736;-79
2022/11/06 08:10:25;;;;;;;10.80;8.67;;;;;;;10.17;61.63;98856.59;6947193;28;20238;-79
2022/11/06 08:13:48;;;;;;;11.97;8.30;;;;;;;13.71;51.87;98819.97;6947189;28;20263;-79
2022/11/06 08:17:10;;;;;;;10.67;7.60;;;;;;;15.97;45.48;98834.97;6948664;28;20211;-79
2022/11/06 08:20:31;;;;;;;9.20;7.27;;;;;;;16.60;42.92;98828.47;6947391;28;20243;-79
2022/11/06 08:23:53;;;;;;;9.30;8.30;;;;;;;15.15;45.23;98821.63;6946274;28;20319;-79
2022/11/06 08:27:14;;;;;;;9.53;6.93;;;;;;;15.95;44.35;98804.50;6948156;28;20236;-78
2022/11/06 08:30:37;;;;;;;11.10;8.70;;;;;;;15.77;44.66;98807.34;6946802;28;20279;-79
2022/11/06 08:33:58;;;;;;;9.20;7.27;;;;;;;15.79;44.95;98808.78;6947572;28;20231;-79
2022/11/06 08:37:20;;;;;;;10.33;7.70;;;;;;;14.96;46.82;98811.88;6952620;28;20285;-79
2022/11/06 08:40:42;;;;;;;8.90;7.97;;;;;;;15.84;45.52;98781.72;6949214;28;20321;-79
2022/11/06 08:44:03;;;;;;;9.60;7.87;;;;;;;15.38;45.16;98805.34;6975105;28;20245;-79
2022/11/06 08:47:26;;;;;;;11.13;8.17;;;;;;;15.73;46.80;98795.28;6973369;28;20293;-79
2022/11/06 08:50:48;;;;;;;10.57;8.60;;;;;;;15.74;45.81;98805.94;6973974;28;20471;-79
2022/11/06 08:54:10;;;;;;;8.07;6.97;;;;;;;14.62;48.09;98824.28;6974676;28;20730;-79
2022/11/06 08:57:32;;;;;;;10.00;7.27;;;;;;;13.70;51.27;98820.19;6973258;28;20207;-79
2022/11/06 09:00:53;;;;;;;9.33;7.37;;;;;;;14.00;50.91;98816.53;6949281;28;20496;-79
2022/11/06 09:04:16;;;;;;;8.90;7.70;;;;;;;14.29;50.68;98813.03;6947311;28;20691;-79
2022/11/06 09:07:38;;;;;;;11.50;8.17;;;;;;;14.38;50.54;98800.00;6945879;28;20277;-79
2022/11/06 09:10:59;;;;;;;10.67;7.53;;;;;;;14.85;50.06;98810.78;6947155;28;20216;-79
2022/11/06 09:14:21;;;;;;;8.43;7.57;;;;;;;14.55;50.71;98801.00;6946605;28;20748;-79
2022/11/06 09:17:43;;;;;;;10.40;7.73;;;;;;;14.50;50.44;98815.28;6954172;28;20787;-79
2022/11/06 09:21:06;;;;;;;9.67;8.03;;;;;;;14.27;51.51;98811.63;6974261;28;20211;-79
2022/11/06 09:24:28;;;;;;;8.87;7.77;;;;;;;14.54;51.53;98808.34;6973709;28;20349;-79
2022/11/06 09:27:52;;;;;;;307.23;124.93;;;;;;;14.60;51.27;98812.00;6973442;28;20295;-79
2022/11/06 09:31:13;;;;;;;19.00;15.00;;;;;;;14.37;51.14;98798.34;6974115;28;20304;-79
2022/11/06 09:34:35;;;;;;;32.87;26.77;;;;;;;14.50;51.15;98807.13;6972235;28;20322;-79
2022/11/06 09:38:02;;;;;;;11.37;9.07;;;;;;;13.86;52.37;98804.16;6973309;28;20237;-79
2022/11/06 09:41:31;;;;;;;11.63;9.07;;;;;;;14.37;52.53;98822.75;6974313;28;20238;-79
2022/11/06 09:45:00;;;;;;;8.33;7.33;;;;;;;14.36;51.93;98845.50;6973772;28;20186;-79
2022/11/06 09:48:25;;;;;;;9.60;8.20;;;;;;;14.48;53.34;98840.97;6973253;28;20347;-79
2022/11/06 09:51:50;;;;;;;9.27;8.27;;;;;;;14.61;52.93;98838.06;6968605;28;20291;-78
2022/11/06 09:55:16;;;;;;;9.27;7.87;;;;;;;14.73;52.51;98811.81;6947223;28;20709;-79
2022/11/06 09:58:41;;;;;;;10.37;7.60;;;;;;;15.10;49.64;98784.28;6946665;28;20199;-79
2022/11/06 10:02:02;;;;;;;10.43;7.97;;;;;;;14.86;50.79;98754.63;6946542;28;20282;-79
2022/11/06 10:05:26;;;;;;;8.57;7.50;;;;;;;15.27;50.07;98771.66;6946554;28;20716;-79
2022/11/06 10:08:49;;;;;;;8.90;8.00;;;;;;;15.15;51.23;98792.56;6946189;28;20390;-79
2022/11/06 10:12:17;;;;;;;10.93;8.80;;;;;;;15.30;50.69;98787.50;6954560;28;20315;-79
2022/11/06 10:15:43;;;;;;;16.03;13.20;;;;;;;15.71;49.53;98783.84;6968045;28;20675;-79
2022/11/06 10:19:10;;;;;;;22.13;16.23;;;;;;;15.63;50.27;98778.78;6974767;28;20287;-80
2022/11/06 10:22:37;;;;;;;9.30;8.00;;;;;;;16.28;48.28;98764.66;6976961;28;20374;-79
2022/11/06 10:26:06;;;;;;;10.07;8.90;;;;;;;16.20;48.48;98769.66;6975630;28;20214;-80
2022/11/06 10:29:54;;;;;;;7.60;6.80;;;;;;;16.90;46.79;98750.06;6952285;28;20259;-78
2022/11/06 10:33:24;;;;;;;7.57;6.80;;;;;;;17.23;45.62;98728.25;6958136;28;20229;-79
2022/11/06 10:36:48;;;;;;;9.10;7.17;;;;;;;17.27;46.21;98699.44;6947032;28;20195;-77
2022/11/06 10:40:16;;;;;;;9.33;6.93;;;;;;;17.50;45.24;98703.88;6972090;28;20287;-78
2022/11/06 10:43:42;;;;;;;7.40;6.70;;;;;;;17.82;44.67;98693.97;6977569;28;20224;-80
2022/11/06 10:47:11;;;;;;;7.03;6.33;;;;;;;17.89;44.95;98684.50;6977522;28;20252;-78
2022/11/06 10:50:39;;;;;;;6.20;5.20;;;;;;;17.59;45.28;98683.28;6976899;28;20229;-77
2022/11/06 10:54:11;;;;;;;4.70;4.30;;;;;;;17.10;44.88;98674.09;6978041;28;20239;-77
2022/11/06 10:57:37;;;;;;;4.97;4.57;;;;;;;17.05;45.12;98671.31;6977245;28;20218;-78
2022/11/06 11:01:00;;;;;;;4.40;4.00;;;;;;;17.57;44.60;98666.38;6977372;28;20662;-78
2022/11/06 11:04:23;;;;;;;4.63;4.23;;;;;;;16.64;47.40;98654.59;6977023;28;20212;-77
2022/11/06 11:07:46;;;;;;;6.23;5.63;;;;;;;15.71;49.53;98654.22;6976955;28;20202;-77
2022/11/06 11:11:21;;;;;;;6.80;6.00;;;;;;;15.13;51.32;98634.47;6977430;28;20230;-78
2022/11/06 11:14:43;;;;;;;5.83;5.33;;;;;;;15.13;51.57;98647.19;6977038;28;20188;-78
2022/11/06 11:18:15;;;;;;;6.37;4.83;;;;;;;15.20;50.82;98634.31;6976852;28;20692;-78
2022/11/06 11:21:38;;;;;;;5.30;4.80;;;;;;;15.04;50.24;98606.00;6977624;28;20226;-78
2022/11/06 11:25:02;;;;;;;5.20;4.70;;;;;;;15.02;51.12;98612.72;6976667;28;20633;-78
2022/11/06 11:28:29;;;;;;;4.57;4.17;;;;;;;14.90;51.42;98596.47;6975541;28;20251;-78
2022/11/06 11:31:52;;;;;;;3.90;3.60;;;;;;;14.08;51.58;98536.97;6976828;28;20309;-78
2022/11/06 11:35:19;;;;;;;4.67;4.27;;;;;;;14.52;51.92;98579.03;6975417;28;20272;-78
2022/11/06 11:38:42;;;;;;;4.33;4.03;;;;;;;15.35;50.62;98573.03;6975500;28;20293;-78
2022/11/06 11:42:25;;;;;;;3.67;3.37;;;;;;;16.43;47.80;98549.19;6974341;28;20275;-78
2022/11/06 11:46:01;;;;;;;4.27;3.87;;;;;;;15.56;48.01;98549.78;6974062;28;20675;-79
2022/11/06 11:49:28;;;;;;;6.13;5.30;;;;;;;14.92;50.44;98560.94;6974813;28;20234;-78
2022/11/06 11:52:52;;;;;;;4.00;3.70;;;;;;;15.00;50.25;98553.25;6975435;28;20356;-78
2022/11/06 11:56:16;;;;;;;3.67;3.37;;;;;;;14.31;50.35;98560.59;6976196;28;20293;-78
2022/11/06 11:59:43;;;;;;;3.27;3.07;;;;;;;14.83;50.36;98513.50;6970698;28;20300;-78
2022/11/06 12:03:05;;;;;;;3.80;3.40;;;;;;;14.79;50.13;98515.03;6969531;28;20303;-78
2022/11/06 12:06:27;;;;;;;4.10;3.60;;;;;;;14.24;51.65;98521.91;6974572;28;20210;-78
2022/11/06 12:09:48;;;;;;;4.33;3.90;;;;;;;13.77;51.84;98495.78;6975214;28;20324;-78
2022/11/06 12:13:16;;;;;;;3.87;3.57;;;;;;;13.60;52.55;98455.00;6958809;28;20734;-78
2022/11/06 12:16:38;;;;;;;4.20;3.80;;;;;;;14.23;51.71;98493.16;6974773;28;20380;-78
2022/11/06 12:20:00;;;;;;;4.13;3.83;;;;;;;14.38;50.60;98496.22;6974496;28;20710;-77
2022/11/06 12:23:26;;;;;;;3.70;3.40;;;;;;;14.04;50.55;98489.69;6974508;28;20248;-78
2022/11/06 12:26:52;;;;;;;4.10;3.73;;;;;;;14.33;50.99;98475.22;6974674;28;20232;-78
2022/11/06 12:30:17;;;;;;;3.83;3.43;;;;;;;15.09;49.28;98483.09;6973623;28;20260;-78
2022/11/06 12:33:40;;;;;;;3.70;3.40;;;;;;;14.90;49.16;98457.19;6974866;28;20761;-79
2022/11/06 12:37:19;;;;;;;3.47;3.17;;;;;;;14.55;48.41;98464.59;6974212;28;20215;-78
2022/11/06 12:40:43;;;;;;;3.60;3.30;;;;;;;14.28;50.70;98477.81;6974189;28;20193;-79
2022/11/06 12:44:09;;;;;;;3.17;2.97;;;;;;;15.45;46.99;98480.03;6974907;28;20274;-79
2022/11/06 12:47:42;;;;;;;3.40;3.10;;;;;;;14.96;47.96;98467.09;6974050;28;20199;-79
2022/11/06 12:51:06;;;;;;;4.27;3.23;;;;;;;15.10;47.91;98461.13;6973727;28;20273;-79
2022/11/06 12:54:40;;;;;;;3.60;3.30;;;;;;;14.53;49.78;98464.00;6974534;28;20290;-79
2022/11/06 12:58:18;;;;;;;3.53;3.23;;;;;;;15.22;47.88;98452.94;6973515;28;20297;-79
2022/11/06 13:01:44;;;;;;;3.40;3.10;;;;;;;15.00;48.46;98458.25;6974009;28;20306;-78
2022/11/06 13:05:13;;;;;;;3.00;2.80;;;;;;;15.41;47.62;98430.81;6974432;28;20203;-78
2022/11/06 13:08:39;;;;;;;3.60;3.30;;;;;;;14.74;48.70;98450.63;6969081;28;20218;-79
2022/11/06 13:12:06;;;;;;;3.00;2.80;;;;;;;14.47;48.76;98422.41;6981557;28;20883;-80
2022/11/06 13:15:32;;;;;;;3.13;2.90;;;;;;;14.93;47.66;98411.38;6975011;28;20231;-80
2022/11/06 13:18:58;;;;;;;3.30;3.00;;;;;;;15.13;47.78;98422.66;6974297;28;20679;-80
2022/11/06 13:22:25;;;;;;;3.20;2.90;;;;;;;15.24;47.25;98426.38;6973297;28;20354;-79
2022/11/06 13:25:52;;;;;;;2.77;2.57;;;;;;;15.64;45.67;98422.50;6974917;28;20211;-80
2022/11/06 13:29:15;;;;;;;2.90;2.70;;;;;;;15.62;45.60;98424.63;6973624;28;20280;-80
2022/11/06 13:32:38;;;;;;;3.20;2.90;;;;;;;16.24;43.75;98426.19;6967424;28;20228;-80
2022/11/06 13:36:01;;;;;;;3.30;3.00;;;;;;;15.39;44.72;98423.97;6951038;28;20675;-80
2022/11/06 13:39:28;;;;;;;3.03;2.80;;;;;;;14.98;46.85;98407.97;6976671;28;20250;-80
2022/11/06 13:42:53;;;;;;;2.60;2.40;;;;;;;15.86;45.72;98411.72;6987734;28;20361;-80
2022/11/06 13:46:23;;;;;;;2.70;2.50;;;;;;;16.03;45.92;98410.63;6975271;28;20250;-80
2022/11/06 13:49:49;;;;;;;2.70;2.50;;;;;;;15.24;46.93;98407.34;6973979;28;20259;-80
2022/11/06 13:53:17;;;;;;;2.93;2.60;;;;;;;14.84;47.83;98409.28;6969142;28;20520;-80
2022/11/06 13:57:01;;;;;;;3.33;2.90;;;;;;;14.16;49.17;98421.94;6950907;28;20371;-80
2022/11/06 14:00:23;;;;;;;3.27;3.07;;;;;;;14.39;49.14;98417.31;6969001;28;20202;-80
2022/11/06 14:04:01;;;;;;;3.70;2.90;;;;;;;13.77;50.21;98420.75;6975224;28;20742;-80
2022/11/06 14:07:23;;;;;;;4.27;2.87;;;;;;;13.99;49.99;98413.66;6952272;28;20241;-79
2022/11/06 14:10:52;;;;;;;3.10;2.90;;;;;;;13.97;49.71;98417.66;6967922;28;20226;-80
2022/11/06 14:14:24;;;;;;;3.60;3.30;;;;;;;13.69;50.78;98404.03;6980362;28;20256;-80
2022/11/06 14:17:55;;;;;;;3.83;3.53;;;;;;;13.54;51.33;98422.59;6968830;28;20247;-79
2022/11/06 14:21:48;;;;;;;3.63;3.33;;;;;;;13.50;50.83;98406.00;6966483;28;20768;-79
2022/11/06 14:25:56;;;;;;;3.90;3.50;;;;;;;13.29;51.46;98419.25;6980131;28;20206;-80
2022/11/06 14:29:42;;;;;;;4.03;3.63;;;;;;;13.43;51.66;98418.81;6956452;28;20313;-80
2022/11/06 14:33:10;;;;;;;3.80;3.50;;;;;;;13.26;51.55;98425.13;6958440;28;20307;-80
2022/11/06 14:36:34;;;;;;;3.87;3.57;;;;;;;13.28;51.96;98420.31;6977571;28;20217;-79
2022/11/06 14:40:04;;;;;;;3.80;3.50;;;;;;;13.03;52.49;98420.47;6978520;28;20187;-79
2022/11/06 14:43:28;;;;;;;4.43;3.50;;;;;;;13.38;51.84;98428.69;6978651;28;20284;-80
2022/11/06 14:46:53;;;;;;;3.90;3.60;;;;;;;13.67;50.66;98444.03;6978758;28;20212;-79
2022/11/06 14:50:24;;;;;;;3.80;3.50;;;;;;;13.33;51.30;98440.22;6977863;28;20230;-79
2022/11/06 14:53:48;;;;;;;4.37;3.33;;;;;;;13.54;50.53;98390.09;6978676;28;20238;-79
2022/11/06 14:57:13;;;;;;;4.47;4.07;;;;;;;14.41;48.74;98419.81;6978872;28;20619;-80
2022/11/06 15:00:38;;;;;;;4.57;4.17;;;;;;;14.29;48.94;98411.66;6978167;28;20238;-81
2022/11/06 15:04:03;;;;;;;4.50;4.07;;;;;;;14.51;48.64;98409.19;6954510;28;20360;-80
2022/11/06 15:07:51;;;;;;;6.73;5.57;;;;;;;14.28;49.25;98403.78;6978368;28;20294;-81
2022/11/06 15:11:54;;;;;;;11.30;8.03;;;;;;;14.23;49.42;98390.94;6978207;28;20214;-80
2022/11/06 15:15:17;;;;;;;4.73;4.33;;;;;;;14.16;49.42;98389.41;6977762;28;20679;-79
2022/11/06 15:18:45;;;;;;;5.00;4.60;;;;;;;14.48;48.80;98383.34;6981269;28;20253;-80
2022/11/06 15:22:15;;;;;;;5.00;4.03;;;;;;;13.26;51.32;98371.81;6992039;28;20223;-79
2022/11/06 15:25:39;;;;;;;4.50;4.10;;;;;;;13.78;50.74;98402.59;6991069;28;20333;-80
2022/11/06 15:29:13;;;;;;;5.60;3.97;;;;;;;13.89;50.29;98386.34;6987180;28;20259;-80
2022/11/06 15:32:37;;;;;;;4.37;3.97;;;;;;;14.22;49.73;98399.31;6977761;28;20250;-80
2022/11/06 15:36:04;;;;;;;4.10;3.60;;;;;;;14.34;49.38;98387.38;6979590;28;20238;-80
2022/11/06 15:39:39;;;;;;;4.27;3.87;;;;;;;14.36;49.36;98401.53;6985618;28;20290;-80
2022/11/06 15:43:06;;;;;;;4.40;4.00;;;;;;;14.32;49.50;98383.25;6974503;28;20249;-80
2022/11/06 15:46:28;;;;;;;4.20;3.80;;;;;;;14.27;49.63;98375.03;6977453;28;20601;-80
2022/11/06 15:50:06;;;;;;;4.23;3.83;;;;;;;14.18;49.79;98362.84;6976494;28;20241;-81
2022/11/06 15:53:29;;;;;;;4.67;4.27;;;;;;;14.13;49.52;98387.16;6977561;28;20295;-80
2022/11/06 15:56:52;;;;;;;4.43;4.03;;;;;;;14.12;49.84;98391.75;6976928;28;20238;-81
2022/11/06 16:00:19;;;;;;;5.27;4.77;;;;;;;13.73;50.32;98365.38;6952189;28;20337;-82
2022/11/06 16:03:46;;;;;;;8.40;7.57;;;;;;;13.45;51.20;98396.94;6950110;28;20242;-82
2022/11/06 16:07:08;;;;;;;5.23;4.73;;;;;;;12.92;53.66;98396.03;6948853;28;20208;-82
2022/11/06 16:10:29;;;;;;;6.13;5.53;;;;;;;13.29;52.39;98384.06;6965617;28;20257;-82
2022/11/06 16:13:52;;;;;;;5.80;5.30;;;;;;;13.76;51.31;98383.06;6972633;28;20299;-82
2022/11/06 16:17:17;;;;;;;7.17;6.40;;;;;;;13.58;51.42;98383.97;6964546;28;20649;-82
2022/11/06 16:20:38;;;;;;;7.40;6.60;;;;;;;13.74;51.17;98396.81;6960928;28;20668;-82
2022/11/06 16:24:03;;;;;;;4.97;4.57;;;;;;;13.85;50.40;98392.47;6973135;28;20322;-82
2022/11/06 16:27:26;;;;;;;5.50;5.07;;;;;;;13.68;50.41;98391.53;6969484;28;20629;-82
2022/11/06 16:30:49;;;;;;;6.60;6.00;;;;;;;13.90;50.17;98393.41;6972403;28;20273;-81
2022/11/06 16:34:20;;;;;;;8.03;7.33;;;;;;;13.78;50.09;98389.88;6972549;28;20866;-82
2022/11/06 16:37:42;;;;;;;8.27;7.47;;;;;;;13.77;50.01;98385.53;6968740;28;20198;-82
2022/11/06 16:41:05;;;;;;;7.73;6.93;;;;;;;13.67;50.54;98385.28;6974189;28;20277;-81
2022/11/06 16:44:28;;;;;;;10.40;7.17;;;;;;;13.81;50.23;98386.69;6972170;28;20650;-82
2022/11/06 16:48:33;;;;;;;51.10;26.00;;;;;;;14.13;49.89;98398.00;6972643;28;20237;-82
2022/11/06 16:51:54;;;;;;;7.97;6.90;;;;;;;14.06;50.08;98402.72;6962363;28;20656;-80
2022/11/06 16:55:25;;;;;;;10.53;6.77;;;;;;;13.96;50.88;98403.31;6949597;28;20231;-80
2022/11/06 16:58:50;;;;;;;19.17;13.63;;;;;;;13.93;51.28;98400.25;6945111;28;20283;-80
2022/11/06 17:02:21;;;;;;;13.90;11.00;;;;;;;13.93;51.32;98386.69;6946172;28;20308;-80
2022/11/06 17:05:51;;;;;;;14.13;12.40;;;;;;;13.74;52.22;98387.88;6946286;28;20230;-79